createdAt,value
2023-06-30T00:00:33.560Z,15.73
2023-06-30T00:03:01.488Z,15.57
2023-06-30T00:05:29.321Z,16.00
2023-06-30T00:07:59.768Z,16.25
2023-06-30T00:10:28.907Z,15.25
2023-06-30T00:12:56.573Z,14.75
2023-06-30T00:15:24.228Z,15.80
2023-06-30T00:17:53.909Z,14.75
2023-06-30T00:20:22.483Z,15.73
2023-06-30T00:22:50.258Z,15.80
2023-06-30T00:25:17.961Z,16.58
2023-06-30T00:27:46.957Z,16.30
2023-06-30T00:30:15.420Z,15.65
2023-06-30T00:32:43.070Z,16.60
2023-06-30T00:35:10.883Z,16.63
2023-06-30T00:37:38.735Z,16.55
2023-06-30T00:40:07.326Z,16.10
2023-06-30T00:42:34.977Z,16.10
2023-06-30T00:45:04.130Z,15.63
2023-06-30T00:47:32.144Z,16.17
2023-06-30T00:49:59.872Z,15.57
2023-06-30T00:52:27.646Z,15.50
2023-06-30T00:54:55.348Z,15.82
2023-06-30T00:57:22.980Z,15.95
2023-06-30T00:59:50.628Z,16.00
2023-06-30T01:02:23.337Z,16.35
2023-06-30T01:04:55.251Z,16.23
2023-06-30T01:07:27.006Z,16.27
2023-06-30T01:09:59.197Z,15.75
2023-06-30T01:12:27.239Z,16.45
2023-06-30T01:14:55.642Z,16.45
2023-06-30T01:17:25.914Z,17.33
2023-06-30T01:19:56.613Z,16.30
2023-06-30T01:22:26.793Z,17.17
2023-06-30T01:24:58.990Z,16.65
2023-06-30T01:29:55.319Z,16.70
2023-06-30T01:32:24.696Z,16.65
2023-06-30T01:34:52.681Z,16.13
2023-06-30T01:37:20.341Z,16.77
2023-06-30T01:39:48.024Z,15.88
2023-06-30T01:42:15.823Z,16.15
2023-06-30T01:44:43.800Z,16.08
2023-06-30T01:47:11.969Z,15.88
2023-06-30T01:49:41.070Z,15.82
2023-06-30T01:52:08.887Z,15.77
2023-06-30T01:54:36.609Z,16.75
2023-06-30T01:57:04.612Z,16.50
2023-06-30T01:59:32.253Z,16.02
2023-06-30T02:02:00.022Z,15.70
2023-06-30T02:04:27.768Z,16.40
2023-06-30T02:06:57.077Z,17.35
2023-06-30T02:09:34.471Z,16.95
2023-06-30T02:12:11.201Z,16.65
2023-06-30T02:14:38.838Z,16.35
2023-06-30T02:17:07.789Z,16.75
2023-06-30T02:19:35.462Z,17.05
2023-06-30T02:22:04.788Z,17.05
2023-06-30T02:24:32.426Z,17.02
2023-06-30T02:27:00.060Z,17.02
2023-06-30T02:29:27.701Z,16.83
2023-06-30T02:31:55.433Z,18.30
2023-06-30T02:34:23.168Z,17.10
2023-06-30T02:36:50.867Z,17.58
2023-06-30T02:39:19.865Z,18.35
2023-06-30T02:41:47.467Z,20.35
2023-06-30T02:44:15.115Z,19.98
2023-06-30T02:46:42.738Z,20.33
2023-06-30T02:49:10.380Z,19.85
2023-06-30T02:51:38.180Z,20.85
2023-06-30T02:54:06.063Z,22.38
2023-06-30T02:56:35.038Z,23.40
2023-06-30T02:59:02.860Z,25.52
2023-06-30T03:01:30.590Z,23.35
2023-06-30T03:03:58.333Z,23.75
2023-06-30T03:06:26.056Z,24.33
2023-06-30T03:08:53.701Z,23.35
2023-06-30T03:11:21.309Z,24.33
2023-06-30T03:13:50.609Z,24.00
2023-06-30T03:16:18.282Z,24.77
2023-06-30T03:18:45.955Z,25.30
2023-06-30T03:21:13.580Z,24.90
2023-06-30T03:23:41.611Z,24.60
2023-06-30T03:26:09.298Z,25.48
2023-06-30T03:28:37.774Z,27.52
2023-06-30T03:31:06.815Z,25.67
2023-06-30T03:33:34.561Z,27.20
2023-06-30T03:36:02.202Z,26.02
2023-06-30T03:38:29.836Z,25.05
2023-06-30T03:40:57.505Z,27.00
2023-06-30T03:43:25.231Z,27.13
2023-06-30T03:45:52.869Z,26.88
2023-06-30T03:48:22.682Z,26.23
2023-06-30T03:50:50.615Z,27.00
2023-06-30T03:53:18.267Z,27.77
2023-06-30T03:55:46.281Z,27.20
2023-06-30T03:58:14.089Z,28.23
2023-06-30T04:00:41.722Z,28.38
2023-06-30T04:03:09.871Z,29.50
2023-06-30T04:05:38.997Z,29.70
2023-06-30T04:08:06.816Z,29.35
2023-06-30T04:10:34.782Z,26.58
2023-06-30T04:13:02.434Z,28.70
2023-06-30T04:15:30.031Z,28.25
2023-06-30T04:17:57.744Z,29.83
2023-06-30T04:20:25.384Z,28.17
2023-06-30T04:22:54.395Z,28.73
2023-06-30T04:25:22.236Z,26.90
2023-06-30T04:27:49.853Z,28.15
2023-06-30T04:30:17.476Z,30.15
2023-06-30T04:32:45.209Z,27.25
2023-06-30T04:35:12.848Z,28.80
2023-06-30T04:37:42.233Z,28.35
2023-06-30T04:40:11.752Z,27.80
2023-06-30T04:42:39.901Z,27.98
2023-06-30T04:45:08.617Z,28.27
2023-06-30T04:47:36.322Z,27.70
2023-06-30T04:50:05.308Z,29.00
2023-06-30T04:52:33.011Z,29.13
2023-06-30T04:55:00.614Z,29.08
2023-06-30T04:57:29.614Z,31.52
2023-06-30T04:59:58.034Z,29.60
2023-06-30T05:02:25.701Z,28.92
2023-06-30T05:04:53.370Z,30.48
2023-06-30T05:07:21.568Z,29.52
2023-06-30T05:09:49.295Z,30.90
2023-06-30T05:12:17.123Z,29.23
2023-06-30T05:14:46.118Z,29.30
2023-06-30T05:17:14.121Z,29.20
2023-06-30T05:19:41.833Z,28.35
2023-06-30T05:22:09.522Z,28.75
2023-06-30T05:24:37.130Z,29.90
2023-06-30T05:27:05.247Z,29.50
2023-06-30T05:29:33.299Z,28.05
2023-06-30T05:32:02.373Z,28.65
2023-06-30T05:34:30.118Z,28.10
2023-06-30T05:36:58.001Z,29.38
2023-06-30T05:39:25.651Z,29.30
2023-06-30T05:41:53.277Z,28.70
2023-06-30T05:44:20.938Z,29.45
2023-06-30T05:46:48.627Z,28.60
2023-06-30T05:49:17.642Z,28.60
2023-06-30T05:51:45.325Z,29.85
2023-06-30T05:54:13.795Z,28.00
2023-06-30T05:56:41.486Z,28.90
2023-06-30T05:59:11.442Z,28.00
2023-06-30T06:01:39.642Z,30.13
2023-06-30T06:04:10.690Z,28.10
2023-06-30T06:06:40.013Z,28.50
2023-06-30T06:09:07.873Z,27.98
2023-06-30T06:11:35.580Z,27.33
2023-06-30T06:14:03.197Z,28.80
2023-06-30T06:16:30.840Z,29.23
2023-06-30T06:18:58.525Z,28.27
2023-06-30T06:21:27.508Z,28.45
2023-06-30T06:23:56.564Z,28.70
2023-06-30T06:26:24.225Z,28.13
2023-06-30T06:28:52.457Z,30.35
2023-06-30T06:31:20.304Z,28.38
2023-06-30T06:33:47.999Z,28.70
2023-06-30T06:36:15.629Z,28.60
2023-06-30T06:38:43.313Z,28.23
2023-06-30T06:41:12.280Z,29.60
2023-06-30T06:43:39.901Z,30.13
2023-06-30T06:46:07.705Z,29.63
2023-06-30T06:48:35.347Z,27.95
2023-06-30T06:51:04.458Z,29.73
2023-06-30T06:53:34.010Z,30.15
2023-06-30T06:56:02.952Z,29.10
2023-06-30T06:58:33.206Z,28.48
2023-06-30T07:01:01.144Z,28.83
2023-06-30T07:03:29.903Z,28.85
2023-06-30T07:05:58.121Z,29.30
2023-06-30T07:08:26.082Z,29.20
2023-06-30T07:10:53.771Z,28.40
2023-06-30T07:13:22.676Z,29.23
2023-06-30T07:15:51.989Z,30.27
2023-06-30T07:18:21.037Z,28.52
2023-06-30T07:20:49.180Z,29.58
2023-06-30T07:23:16.963Z,29.15
2023-06-30T07:25:45.301Z,28.52
2023-06-30T07:28:13.724Z,28.42
2023-06-30T07:30:45.226Z,27.85
2023-06-30T07:33:14.536Z,28.20
2023-06-30T07:35:42.458Z,28.17
2023-06-30T07:38:10.700Z,29.17
2023-06-30T07:40:53.731Z,29.27
2023-06-30T07:43:23.240Z,29.20
2023-06-30T07:45:50.933Z,27.90
2023-06-30T07:48:20.183Z,27.15
2023-06-30T07:51:03.414Z,27.83
2023-06-30T07:53:35.741Z,28.30
2023-06-30T07:56:03.413Z,28.42
2023-06-30T07:58:31.036Z,29.30
2023-06-30T08:00:58.669Z,27.70
2023-06-30T08:03:27.805Z,28.85
2023-06-30T08:05:56.577Z,30.85
2023-06-30T08:08:25.214Z,28.60
2023-06-30T08:10:52.883Z,28.40
2023-06-30T08:13:20.524Z,28.80
2023-06-30T08:15:49.498Z,29.00
2023-06-30T08:18:32.474Z,30.73
2023-06-30T08:21:03.864Z,30.58
2023-06-30T08:23:31.749Z,27.80
2023-06-30T08:25:59.445Z,28.40
2023-06-30T08:28:27.119Z,28.05
2023-06-30T08:30:55.050Z,28.75
2023-06-30T08:33:39.934Z,29.35
2023-06-30T08:36:10.408Z,28.90
2023-06-30T08:38:38.084Z,29.38
2023-06-30T08:41:05.852Z,28.17
2023-06-30T08:43:34.055Z,29.48
2023-06-30T08:46:03.483Z,28.90
2023-06-30T08:48:32.332Z,28.15
2023-06-30T08:51:01.131Z,28.77
2023-06-30T08:53:31.811Z,27.95
2023-06-30T08:56:01.005Z,28.50
2023-06-30T08:58:29.158Z,27.77
2023-06-30T09:00:57.591Z,27.88
2023-06-30T09:03:26.014Z,28.40
2023-06-30T09:05:56.589Z,28.88
2023-06-30T09:08:25.491Z,30.05
2023-06-30T09:10:56.190Z,28.98
2023-06-30T09:13:25.662Z,29.38
2023-06-30T09:15:56.748Z,31.48
2023-06-30T09:18:24.486Z,30.35
2023-06-30T09:20:52.166Z,28.88
2023-06-30T09:23:19.800Z,30.35
2023-06-30T09:25:48.338Z,30.02
2023-06-30T09:28:17.751Z,31.17
2023-06-30T09:30:47.014Z,30.92
2023-06-30T09:33:16.025Z,30.65
2023-06-30T09:35:45.231Z,29.85
2023-06-30T09:38:13.729Z,29.38
2023-06-30T09:40:44.403Z,31.23
2023-06-30T09:43:19.261Z,31.38
2023-06-30T09:45:48.965Z,30.90
2023-06-30T09:48:17.174Z,30.92
2023-06-30T09:50:44.862Z,33.72
2023-06-30T09:53:12.619Z,31.02
2023-06-30T09:55:50.650Z,33.55
2023-06-30T09:58:21.523Z,31.67
2023-06-30T10:00:52.575Z,31.00
2023-06-30T10:03:20.458Z,28.27
2023-06-30T10:05:50.530Z,27.20
2023-06-30T10:08:18.655Z,22.48
2023-06-30T10:10:46.378Z,22.65
2023-06-30T10:13:17.012Z,22.67
2023-06-30T10:15:46.753Z,22.08
2023-06-30T10:18:16.299Z,22.85
2023-06-30T10:20:49.087Z,22.83
2023-06-30T10:23:19.021Z,22.83
2023-06-30T10:25:47.154Z,22.77
2023-06-30T10:28:16.064Z,22.17
2023-06-30T10:30:44.350Z,23.10
2023-06-30T10:33:14.046Z,22.58
2023-06-30T10:35:42.422Z,22.45
2023-06-30T10:38:12.652Z,23.25
2023-06-30T10:40:40.379Z,24.73
2023-06-30T10:43:08.293Z,23.00
2023-06-30T10:45:36.856Z,21.80
2023-06-30T10:48:10.412Z,23.58
2023-06-30T10:50:43.532Z,24.00
2023-06-30T10:53:18.474Z,23.42
2023-06-30T10:55:47.016Z,24.17
2023-06-30T10:58:23.828Z,24.83
2023-06-30T11:01:04.539Z,25.40
2023-06-30T11:04:07.522Z,24.80
2023-06-30T11:06:37.512Z,23.40
2023-06-30T11:09:12.559Z,24.38
2023-06-30T11:11:50.025Z,23.05
2023-06-30T11:14:31.829Z,24.35
2023-06-30T11:17:04.300Z,33.60
2023-06-30T11:19:32.063Z,25.83
2023-06-30T11:22:26.450Z,23.75
2023-06-30T11:24:54.493Z,23.10
2023-06-30T11:27:22.717Z,23.27
2023-06-30T11:29:51.346Z,23.48
2023-06-30T11:32:19.843Z,22.67
2023-06-30T11:34:47.895Z,24.25
2023-06-30T11:37:15.548Z,24.17
2023-06-30T11:39:51.639Z,23.92
2023-06-30T11:42:19.536Z,24.27
2023-06-30T11:44:47.207Z,24.48
2023-06-30T11:47:15.482Z,24.33
2023-06-30T11:49:43.322Z,24.67
2023-06-30T11:52:11.356Z,23.00
2023-06-30T11:54:39.040Z,24.00
2023-06-30T11:57:08.228Z,24.65
2023-06-30T11:59:36.125Z,24.23
2023-06-30T12:02:05.626Z,24.42
2023-06-30T12:04:35.431Z,24.42
2023-06-30T12:07:04.437Z,23.63
2023-06-30T12:09:32.222Z,25.10
2023-06-30T12:12:01.435Z,24.02
2023-06-30T12:14:30.613Z,26.10
2023-06-30T12:16:58.356Z,25.13
2023-06-30T12:19:26.823Z,26.02
2023-06-30T12:21:55.948Z,26.35
2023-06-30T12:24:23.902Z,23.80
2023-06-30T12:26:52.732Z,25.95
2023-06-30T12:29:20.865Z,26.17
2023-06-30T12:31:50.181Z,25.17
2023-06-30T12:34:32.695Z,26.48
2023-06-30T12:37:00.488Z,26.65
2023-06-30T12:39:28.356Z,26.15
2023-06-30T12:41:56.123Z,26.00
2023-06-30T12:44:24.081Z,24.95
2023-06-30T12:47:01.666Z,24.70
2023-06-30T12:49:30.009Z,24.23
2023-06-30T12:51:57.779Z,25.33
2023-06-30T12:54:25.783Z,26.77
2023-06-30T12:56:54.814Z,27.70
2023-06-30T12:59:22.672Z,25.48
2023-06-30T13:01:50.379Z,26.58
2023-06-30T13:04:19.393Z,24.77
2023-06-30T13:06:47.058Z,23.88
2023-06-30T13:09:15.022Z,25.20
2023-06-30T13:11:43.150Z,25.77
2023-06-30T13:14:10.865Z,25.25
2023-06-30T13:16:38.581Z,25.63
2023-06-30T13:19:06.334Z,26.77
2023-06-30T13:21:35.316Z,24.67
2023-06-30T13:24:03.000Z,26.75
2023-06-30T13:26:30.645Z,26.23
2023-06-30T13:28:58.280Z,25.80
2023-06-30T13:31:25.918Z,24.98
2023-06-30T13:33:53.640Z,25.17
2023-06-30T13:36:21.260Z,25.50
2023-06-30T13:38:50.256Z,25.48
2023-06-30T13:41:18.076Z,25.23
2023-06-30T13:43:45.725Z,26.17
2023-06-30T13:46:13.475Z,26.77
2023-06-30T13:48:41.667Z,26.63
2023-06-30T13:51:09.340Z,26.02
2023-06-30T13:53:40.021Z,25.25
2023-06-30T13:56:08.990Z,26.25
2023-06-30T13:58:36.643Z,23.98
2023-06-30T14:01:04.309Z,24.40
2023-06-30T14:03:32.012Z,24.40
2023-06-30T14:05:59.836Z,24.27
2023-06-30T14:08:27.618Z,24.83
2023-06-30T14:10:56.497Z,23.17
2023-06-30T14:13:28.491Z,23.17
2023-06-30T14:15:56.172Z,23.13
2023-06-30T14:18:23.865Z,23.23
2023-06-30T14:20:51.483Z,22.73
2023-06-30T14:23:19.126Z,21.63
2023-06-30T14:25:47.123Z,23.58
2023-06-30T14:28:15.056Z,23.50
2023-06-30T14:30:44.310Z,23.38
2023-06-30T14:33:12.019Z,22.35
2023-06-30T14:35:39.675Z,24.63
2023-06-30T14:38:07.746Z,23.67
2023-06-30T14:40:35.713Z,23.17
2023-06-30T14:43:03.456Z,22.80
2023-06-30T14:45:31.420Z,22.50
2023-06-30T14:48:00.499Z,22.55
2023-06-30T14:50:28.296Z,23.60
2023-06-30T14:52:55.991Z,24.45
2023-06-30T14:55:23.943Z,23.25
2023-06-30T14:57:51.996Z,23.90
2023-06-30T15:00:21.047Z,23.67
2023-06-30T15:02:49.402Z,22.25
2023-06-30T15:05:18.527Z,22.73
2023-06-30T15:07:47.716Z,24.45
2023-06-30T15:10:15.829Z,24.33
2023-06-30T15:12:43.487Z,23.67
2023-06-30T15:15:11.646Z,24.90
2023-06-30T15:17:39.352Z,24.23
2023-06-30T15:20:08.438Z,24.77
2023-06-30T15:22:37.590Z,22.67
2023-06-30T15:25:05.761Z,23.00
2023-06-30T15:27:35.625Z,24.38
2023-06-30T15:30:07.072Z,24.80
2023-06-30T15:32:34.879Z,23.75
2023-06-30T15:35:02.566Z,22.95
2023-06-30T15:37:30.245Z,25.25
2023-06-30T15:39:59.216Z,25.38
2023-06-30T15:42:26.904Z,23.33
2023-06-30T15:44:54.572Z,23.92
2023-06-30T15:47:22.247Z,23.40
2023-06-30T15:49:49.881Z,23.77
2023-06-30T15:52:17.641Z,23.80
2023-06-30T15:54:45.325Z,23.45
2023-06-30T15:57:14.299Z,23.58
2023-06-30T15:59:41.932Z,24.63
2023-06-30T16:02:09.568Z,24.00
2023-06-30T16:04:37.257Z,25.23
2023-06-30T16:07:05.244Z,25.17
2023-06-30T16:09:32.936Z,23.13
2023-06-30T16:12:00.605Z,24.10
2023-06-30T16:14:29.667Z,25.77
2023-06-30T16:16:57.347Z,28.48
2023-06-30T16:19:25.017Z,25.33
2023-06-30T16:21:52.658Z,23.92
2023-06-30T16:24:20.293Z,23.67
2023-06-30T16:26:48.018Z,23.92
2023-06-30T16:29:15.696Z,25.23
2023-06-30T16:31:44.690Z,23.30
2023-06-30T16:34:12.445Z,23.58
2023-06-30T16:36:41.091Z,24.17
2023-06-30T16:39:09.239Z,25.17
2023-06-30T16:41:36.893Z,25.10
2023-06-30T16:44:04.644Z,26.27
2023-06-30T16:46:32.368Z,25.45
2023-06-30T16:49:01.340Z,26.05
2023-06-30T16:51:28.956Z,25.00
2023-06-30T16:53:56.568Z,25.98
2023-06-30T16:56:24.231Z,25.88
2023-06-30T16:58:53.628Z,25.30
2023-06-30T17:01:23.024Z,26.85
2023-06-30T17:03:50.746Z,25.42
2023-06-30T17:06:19.821Z,26.42
2023-06-30T17:08:47.468Z,26.85
2023-06-30T17:11:15.095Z,26.10
2023-06-30T17:13:42.735Z,25.73
2023-06-30T17:16:10.351Z,26.38
2023-06-30T17:18:37.987Z,27.08
2023-06-30T17:21:05.620Z,26.38
2023-06-30T17:23:34.595Z,25.38
2023-06-30T17:26:02.230Z,26.60
2023-06-30T17:28:29.947Z,27.48
2023-06-30T17:30:57.644Z,27.65
2023-06-30T17:33:25.350Z,28.92
2023-06-30T17:35:53.026Z,29.38
2023-06-30T17:38:20.693Z,27.90
2023-06-30T17:40:49.671Z,29.55
2023-06-30T17:43:17.368Z,31.02
2023-06-30T17:45:45.596Z,29.45
2023-06-30T17:48:13.842Z,27.27
2023-06-30T17:50:41.647Z,27.40
2023-06-30T17:53:09.352Z,26.30
2023-06-30T17:55:37.071Z,26.42
2023-06-30T17:58:06.065Z,26.38
2023-06-30T18:00:33.715Z,26.63
2023-06-30T18:03:01.370Z,26.23
2023-06-30T18:05:29.054Z,26.15
2023-06-30T18:07:56.697Z,25.65
2023-06-30T18:10:24.543Z,27.83
2023-06-30T18:12:54.979Z,24.95
2023-06-30T18:15:24.242Z,26.38
2023-06-30T18:17:51.919Z,26.52
2023-06-30T18:20:19.639Z,26.40
2023-06-30T18:22:47.266Z,25.85
2023-06-30T18:25:14.969Z,26.67
2023-06-30T18:27:43.150Z,25.77
2023-06-30T18:30:11.366Z,26.25
2023-06-30T18:32:40.396Z,24.95
2023-06-30T18:35:08.735Z,26.25
2023-06-30T18:37:36.433Z,25.48
2023-06-30T18:40:04.615Z,25.63
2023-06-30T18:42:32.289Z,26.02
2023-06-30T18:45:00.277Z,24.98
2023-06-30T18:47:27.967Z,27.20
2023-06-30T18:49:56.953Z,24.73
2023-06-30T18:52:24.611Z,25.90
2023-06-30T18:54:52.284Z,26.50
2023-06-30T18:57:19.924Z,25.25
2023-06-30T18:59:49.459Z,26.45
2023-06-30T19:02:17.208Z,25.70
2023-06-30T19:04:45.115Z,26.52
2023-06-30T19:07:14.100Z,25.00
2023-06-30T19:09:41.749Z,27.38
2023-06-30T19:12:09.993Z,25.42
2023-06-30T19:14:37.608Z,27.25
2023-06-30T19:17:05.470Z,25.98
2023-06-30T19:19:33.213Z,28.10
2023-06-30T19:22:01.078Z,24.88
2023-06-30T19:24:30.098Z,26.83
2023-06-30T19:26:57.720Z,28.45
2023-06-30T19:29:25.352Z,26.80
2023-06-30T19:31:53.048Z,27.80
2023-06-30T19:34:20.768Z,28.35
2023-06-30T19:36:48.567Z,29.05
2023-06-30T19:39:16.209Z,28.27
2023-06-30T19:41:45.231Z,28.38
2023-06-30T19:44:12.872Z,29.20
2023-06-30T19:46:40.568Z,27.02
2023-06-30T19:49:08.378Z,30.08
2023-06-30T19:51:35.996Z,29.88
2023-06-30T19:54:03.687Z,27.88
2023-06-30T19:56:31.329Z,30.95
2023-06-30T19:59:00.478Z,31.75
2023-06-30T20:01:28.132Z,31.17
2023-06-30T20:03:55.906Z,30.00
2023-06-30T20:06:23.555Z,30.42
2023-06-30T20:08:51.307Z,31.83
2023-06-30T20:11:18.951Z,33.20
2023-06-30T20:13:48.702Z,30.52
2023-06-30T20:16:17.766Z,30.27
2023-06-30T20:18:45.408Z,30.73
2023-06-30T20:21:13.015Z,30.33
2023-06-30T20:23:40.642Z,28.38
2023-06-30T20:26:08.275Z,28.65
2023-06-30T20:28:36.932Z,27.98
2023-06-30T20:31:04.676Z,30.35
2023-06-30T20:33:34.095Z,28.98
2023-06-30T20:36:01.781Z,29.15
2023-06-30T20:38:29.409Z,28.17
2023-06-30T20:40:57.012Z,28.80
2023-06-30T20:43:24.693Z,27.38
2023-06-30T20:45:52.318Z,26.83
2023-06-30T20:48:19.948Z,26.10
2023-06-30T20:50:49.173Z,26.20
2023-06-30T20:53:17.193Z,26.73
2023-06-30T20:55:44.838Z,25.95
2023-06-30T20:58:12.504Z,24.67
2023-06-30T21:00:40.349Z,26.00
2023-06-30T21:03:08.122Z,25.25
2023-06-30T21:05:35.802Z,25.63
2023-06-30T21:08:05.085Z,23.33
2023-06-30T21:10:32.758Z,22.90
2023-06-30T21:13:00.993Z,23.95
2023-06-30T21:15:29.145Z,23.17
2023-06-30T21:17:56.974Z,24.67
2023-06-30T21:20:24.684Z,23.60
2023-06-30T21:22:52.328Z,24.80
2023-06-30T21:25:21.318Z,23.67
2023-06-30T21:27:48.958Z,24.48
2023-06-30T21:30:16.657Z,23.75
2023-06-30T21:32:45.346Z,25.70
2023-06-30T21:35:13.108Z,22.85
2023-06-30T21:37:40.749Z,24.05
2023-06-30T21:40:10.280Z,23.65
2023-06-30T21:42:39.341Z,22.73
2023-06-30T21:45:08.188Z,24.02
2023-06-30T21:47:35.847Z,22.77
2023-06-30T21:50:03.822Z,23.40
2023-06-30T21:52:31.466Z,21.83
2023-06-30T21:54:59.112Z,23.92
2023-06-30T21:57:26.749Z,23.30
2023-06-30T21:59:55.710Z,22.83
2023-06-30T22:02:23.574Z,23.73
2023-06-30T22:04:51.416Z,23.17
2023-06-30T22:07:19.538Z,22.75
2023-06-30T22:09:47.195Z,22.95
2023-06-30T22:12:14.878Z,23.20
2023-06-30T22:14:42.521Z,22.95
2023-06-30T22:17:11.511Z,25.58
2023-06-30T22:19:39.133Z,24.90
2023-06-30T22:22:07.730Z,24.15
2023-06-30T22:24:35.399Z,24.88
2023-06-30T22:27:03.046Z,25.17
2023-06-30T22:29:30.698Z,26.50
2023-06-30T22:31:58.316Z,25.83
2023-06-30T22:34:27.573Z,25.02
2023-06-30T22:36:55.269Z,24.83
2023-06-30T22:39:22.904Z,25.48
2023-06-30T22:41:50.560Z,25.65
2023-06-30T22:44:18.174Z,25.00
2023-06-30T22:46:45.858Z,26.63
2023-06-30T22:49:13.485Z,26.58
2023-06-30T22:51:42.494Z,26.13
2023-06-30T22:54:10.136Z,27.40
2023-06-30T22:56:38.133Z,26.25
2023-06-30T22:59:05.740Z,27.88
2023-06-30T23:01:33.413Z,27.70
2023-06-30T23:04:01.077Z,25.92
2023-06-30T23:06:29.117Z,27.40
2023-06-30T23:08:58.075Z,26.35
2023-06-30T23:11:25.712Z,28.63
2023-06-30T23:13:53.396Z,27.85
2023-06-30T23:16:21.055Z,28.30
2023-06-30T23:18:48.788Z,30.73
2023-06-30T23:21:19.046Z,32.70
2023-06-30T23:23:47.047Z,29.60
2023-06-30T23:26:16.734Z,31.75
2023-06-30T23:28:50.163Z,32.25
2023-06-30T23:31:20.575Z,31.88
2023-06-30T23:33:51.655Z,31.77
2023-06-30T23:36:19.715Z,32.67
2023-06-30T23:38:47.369Z,34.40
2023-06-30T23:41:16.862Z,34.20
2023-06-30T23:43:44.547Z,33.38
2023-06-30T23:46:19.164Z,33.67
2023-06-30T23:48:47.211Z,34.80
2023-06-30T23:51:15.003Z,34.75
2023-06-30T23:53:42.649Z,35.25
2023-06-30T23:56:10.345Z,34.55
2023-06-30T23:58:39.506Z,37.22
